createdAt,value
2019-04-26T00:00:37.994Z,27.17
2019-04-26T00:03:12.093Z,26.15
2019-04-26T00:05:43.527Z,26.70
2019-04-26T00:08:15.789Z,25.77
2019-04-26T00:10:58.175Z,25.95
2019-04-26T00:13:34.055Z,25.35
2019-04-26T00:16:10.160Z,23.67
2019-04-26T00:18:42.732Z,26.50
2019-04-26T00:21:14.309Z,26.00
2019-04-26T00:23:45.999Z,24.05
2019-04-26T00:26:17.765Z,25.90
2019-04-26T00:28:49.285Z,24.45
2019-04-26T00:31:21.361Z,22.40
2019-04-26T00:33:53.008Z,24.37
2019-04-26T00:36:24.458Z,24.98
2019-04-26T00:38:55.911Z,22.82
2019-04-26T00:41:27.947Z,24.07
2019-04-26T00:43:59.646Z,23.10
2019-04-26T00:46:32.047Z,22.17
2019-04-26T00:49:05.350Z,22.70
2019-04-26T00:54:08.044Z,22.82
2019-04-26T00:56:40.043Z,22.85
2019-04-26T00:59:12.255Z,22.25
2019-04-26T01:01:45.259Z,20.57
2019-04-26T01:04:17.063Z,23.00
2019-04-26T01:06:50.266Z,23.50
2019-04-26T01:09:22.000Z,23.85
2019-04-26T01:11:53.366Z,22.95
2019-04-26T01:14:24.840Z,23.38
2019-04-26T01:16:56.265Z,23.40
2019-04-26T01:19:28.823Z,23.47
2019-04-26T01:22:03.158Z,22.98
2019-04-26T01:24:37.642Z,21.87
2019-04-26T01:27:10.506Z,24.10
2019-04-26T01:29:44.270Z,21.48
2019-04-26T01:32:17.678Z,22.32
2019-04-26T01:34:51.258Z,21.48
2019-04-26T01:37:22.632Z,24.52
2019-04-26T01:39:58.635Z,22.30
2019-04-26T01:42:48.109Z,21.68
2019-04-26T01:45:24.395Z,23.73
2019-04-26T01:47:58.792Z,24.00
2019-04-26T01:50:33.210Z,23.65
2019-04-26T01:53:05.749Z,24.25
2019-04-26T01:55:37.163Z,25.70
2019-04-26T01:58:08.650Z,24.77
2019-04-26T02:00:42.762Z,24.23
2019-04-26T02:03:15.961Z,23.32
2019-04-26T02:05:47.333Z,25.52
2019-04-26T02:08:19.062Z,22.37
2019-04-26T02:10:50.652Z,22.98
2019-04-26T02:13:24.835Z,21.15
2019-04-26T02:15:56.592Z,23.60
2019-04-26T02:18:28.147Z,21.70
2019-04-26T02:21:04.143Z,21.37
2019-04-26T02:23:53.786Z,22.10
2019-04-26T02:26:38.780Z,21.40
2019-04-26T02:29:18.409Z,22.27
2019-04-26T02:31:52.766Z,22.93
2019-04-26T02:34:26.038Z,21.87
2019-04-26T02:37:01.328Z,23.35
2019-04-26T02:39:37.511Z,22.95
2019-04-26T02:42:15.469Z,22.87
2019-04-26T02:44:51.428Z,24.12
2019-04-26T02:47:39.181Z,25.10
2019-04-26T02:50:15.551Z,23.18
2019-04-26T02:52:55.579Z,21.27
2019-04-26T02:55:57.490Z,21.87
2019-04-26T02:58:33.289Z,22.67
2019-04-26T03:01:05.036Z,21.97
2019-04-26T03:03:39.310Z,22.13
2019-04-26T03:06:11.209Z,22.42
2019-04-26T03:08:43.054Z,22.98
2019-04-26T03:11:17.860Z,22.07
2019-04-26T03:13:56.985Z,23.02
2019-04-26T03:16:33.369Z,24.27
2019-04-26T03:19:16.782Z,23.57
2019-04-26T03:22:00.319Z,22.85
2019-04-26T03:24:51.190Z,21.97
2019-04-26T03:27:44.419Z,22.35
2019-04-26T03:30:22.316Z,20.85
2019-04-26T03:33:24.235Z,22.62
2019-04-26T03:36:26.260Z,21.95
2019-04-26T03:39:17.433Z,21.15
2019-04-26T03:42:14.588Z,20.95
2019-04-26T03:44:58.075Z,22.73
2019-04-26T03:47:35.620Z,22.75
2019-04-26T03:50:17.732Z,22.40
2019-04-26T03:52:55.212Z,22.00
2019-04-26T03:55:31.260Z,22.42
2019-04-26T03:58:10.046Z,22.40
2019-04-26T04:00:46.933Z,20.72
2019-04-26T04:03:37.482Z,22.77
2019-04-26T04:06:11.932Z,28.52
2019-04-26T04:08:49.069Z,19.70
2019-04-26T04:11:26.334Z,17.95
2019-04-26T04:14:06.378Z,18.85
2019-04-26T04:16:57.302Z,17.65
2019-04-26T04:19:55.907Z,18.55
2019-04-26T04:22:34.477Z,16.57
2019-04-26T04:25:25.804Z,15.93
2019-04-26T04:28:06.147Z,17.00
2019-04-26T04:30:47.714Z,16.15
2019-04-26T04:33:47.898Z,15.08
2019-04-26T04:36:26.223Z,15.43
2019-04-26T04:39:13.359Z,14.60
2019-04-26T04:41:55.903Z,15.43
2019-04-26T04:45:08.070Z,14.47
2019-04-26T04:47:49.625Z,15.25
2019-04-26T04:50:24.874Z,14.07
2019-04-26T04:53:02.011Z,14.60
2019-04-26T04:55:46.289Z,14.43
2019-04-26T04:58:38.816Z,14.98
2019-04-26T05:01:17.548Z,15.15
2019-04-26T05:04:02.700Z,15.60
2019-04-26T05:06:47.497Z,15.93
2019-04-26T05:09:24.635Z,15.45
2019-04-26T05:12:11.114Z,16.55
2019-04-26T05:15:02.235Z,17.25
2019-04-26T05:18:01.082Z,16.85
2019-04-26T05:20:55.452Z,16.02
2019-04-26T05:23:51.085Z,15.80
2019-04-26T05:26:38.649Z,16.85
2019-04-26T05:29:31.334Z,15.95
2019-04-26T05:32:25.234Z,17.17
2019-04-26T05:38:00.188Z,15.68
2019-04-26T05:40:54.070Z,15.68
2019-04-26T05:43:32.768Z,15.28
2019-04-26T05:46:17.894Z,16.05
2019-04-26T05:49:03.086Z,16.67
2019-04-26T05:52:13.714Z,15.35
2019-04-26T05:54:52.281Z,14.40
2019-04-26T05:57:44.693Z,16.15
2019-04-26T06:00:52.199Z,15.50
2019-04-26T06:04:06.657Z,16.07
2019-04-26T06:06:45.448Z,15.03
2019-04-26T06:09:42.602Z,15.40
2019-04-26T06:12:24.109Z,16.10
2019-04-26T06:15:28.468Z,17.10
2019-04-26T06:18:23.859Z,16.65
2019-04-26T06:21:04.112Z,16.17
2019-04-26T06:23:41.360Z,15.43
2019-04-26T06:26:46.116Z,17.15
2019-04-26T06:29:38.798Z,16.32
2019-04-26T06:32:28.380Z,15.48
2019-04-26T06:35:20.358Z,16.85
2019-04-26T06:38:22.009Z,17.98
2019-04-26T06:41:28.018Z,17.32
2019-04-26T06:44:04.750Z,17.17
2019-04-26T06:46:43.680Z,16.32
2019-04-26T06:49:28.550Z,17.32
2019-04-26T06:52:20.893Z,17.07
2019-04-26T06:54:58.394Z,17.48
2019-04-26T06:58:02.868Z,18.05
2019-04-26T07:00:47.584Z,17.30
2019-04-26T07:03:24.783Z,17.75
2019-04-26T07:06:00.378Z,17.55
2019-04-26T07:08:56.661Z,17.90
2019-04-26T07:11:54.688Z,17.02
2019-04-26T07:15:03.988Z,19.82
2019-04-26T07:17:47.287Z,17.25
2019-04-26T07:20:22.894Z,17.75
2019-04-26T07:23:24.557Z,18.15
2019-04-26T07:26:06.480Z,17.15
2019-04-26T07:28:53.120Z,18.12
2019-04-26T07:31:39.849Z,17.15
2019-04-26T07:34:31.148Z,18.27
2019-04-26T07:37:34.317Z,16.60
2019-04-26T07:40:38.982Z,19.60
2019-04-26T07:43:40.977Z,17.05
2019-04-26T07:49:32.996Z,17.30
2019-04-26T07:52:13.462Z,16.40
2019-04-26T07:55:20.959Z,16.73
2019-04-26T07:58:28.824Z,17.17
2019-04-26T08:01:31.617Z,15.85
2019-04-26T08:04:07.679Z,17.23
2019-04-26T08:06:46.581Z,15.93
2019-04-26T08:09:27.005Z,16.70
2019-04-26T08:12:00.078Z,15.60
2019-04-26T08:14:38.796Z,14.70
2019-04-26T08:17:32.576Z,14.65
2019-04-26T08:22:55.457Z,14.47
2019-04-26T08:25:29.656Z,15.05
2019-04-26T08:28:03.383Z,14.58
2019-04-26T08:30:40.538Z,15.48
2019-04-26T08:33:14.696Z,13.60
2019-04-26T08:35:53.074Z,14.93
2019-04-26T08:38:24.381Z,14.05
2019-04-26T08:40:56.221Z,13.18
2019-04-26T08:43:36.587Z,14.47
2019-04-26T08:46:32.397Z,13.18
2019-04-26T08:49:08.327Z,13.32
2019-04-26T08:51:42.578Z,15.20
2019-04-26T08:56:49.232Z,12.90
2019-04-26T08:59:23.620Z,13.45
2019-04-26T09:02:14.578Z,13.88
2019-04-26T09:05:02.041Z,14.13
2019-04-26T09:07:37.580Z,14.18
2019-04-26T09:10:12.279Z,12.60
2019-04-26T09:12:46.167Z,13.88
2019-04-26T09:15:21.147Z,12.23
2019-04-26T09:17:52.516Z,12.60
2019-04-26T09:20:29.453Z,12.15
2019-04-26T09:25:58.757Z,13.40
2019-04-26T09:28:34.118Z,12.63
2019-04-26T09:31:07.125Z,13.03
2019-04-26T09:33:40.216Z,12.68
2019-04-26T09:36:11.810Z,12.73
2019-04-26T09:38:43.263Z,12.65
2019-04-26T09:41:14.835Z,13.58
2019-04-26T09:43:48.013Z,13.28
2019-04-26T09:46:37.333Z,13.22
2019-04-26T09:49:10.423Z,13.00
2019-04-26T09:51:42.295Z,13.60
2019-04-26T09:54:15.447Z,14.00
2019-04-26T09:59:17.467Z,14.38
2019-04-26T10:01:49.037Z,14.45
2019-04-26T10:04:20.629Z,15.10
2019-04-26T10:06:52.093Z,15.30
2019-04-26T10:09:25.550Z,15.32
2019-04-26T10:12:01.817Z,15.28
2019-04-26T10:14:41.139Z,16.37
2019-04-26T10:17:17.460Z,16.23
2019-04-26T10:19:50.921Z,16.77
2019-04-26T10:24:57.440Z,17.73
2019-04-26T10:27:28.928Z,17.12
2019-04-26T10:30:07.663Z,16.80
2019-04-26T10:32:33.832Z,16.62
2019-04-26T10:35:06.597Z,16.50
2019-04-26T10:37:39.644Z,16.07
2019-04-26T10:42:42.564Z,17.10
2019-04-26T10:45:16.234Z,16.82
2019-04-26T10:47:47.633Z,17.55
2019-04-26T10:50:19.555Z,20.27
2019-04-26T10:53:11.059Z,17.15
2019-04-26T10:55:46.485Z,15.85
2019-04-26T10:58:31.915Z,16.77
2019-04-26T11:01:03.255Z,16.82
2019-04-26T11:06:06.340Z,16.77
2019-04-26T11:08:37.893Z,15.80
2019-04-26T11:11:10.045Z,17.70
2019-04-26T11:13:41.578Z,17.00
2019-04-26T11:16:13.090Z,17.05
2019-04-26T11:18:44.586Z,16.05
2019-04-26T11:21:16.278Z,17.20
2019-04-26T11:26:21.373Z,16.25
2019-04-26T11:28:55.645Z,17.05
2019-04-26T11:31:27.841Z,15.23
2019-04-26T11:34:05.075Z,15.80
2019-04-26T11:39:05.542Z,17.12
2019-04-26T11:41:39.088Z,15.43
2019-04-26T11:44:10.807Z,14.55
2019-04-26T11:46:44.897Z,15.65
2019-04-26T11:49:16.720Z,15.60
2019-04-26T11:51:48.563Z,15.28
2019-04-26T11:54:22.002Z,15.40
2019-04-26T11:56:54.302Z,15.08
2019-04-26T11:59:26.990Z,15.18
2019-04-26T12:04:34.130Z,15.50
2019-04-26T12:07:10.324Z,15.58
2019-04-26T12:09:43.464Z,15.85
2019-04-26T12:12:14.731Z,13.95
2019-04-26T12:14:46.228Z,14.87
2019-04-26T12:17:17.662Z,14.98
2019-04-26T12:19:52.260Z,15.48
2019-04-26T12:22:23.579Z,14.45
2019-04-26T12:24:55.056Z,15.23
2019-04-26T12:27:30.373Z,14.47
2019-04-26T12:32:30.099Z,15.70
2019-04-26T12:35:01.798Z,14.05
2019-04-26T12:37:33.384Z,15.65
2019-04-26T12:40:07.219Z,15.35
2019-04-26T12:42:39.298Z,15.85
2019-04-26T12:45:24.995Z,16.57
2019-04-26T12:48:01.022Z,16.82
2019-04-26T12:53:04.972Z,17.90
2019-04-26T12:55:36.677Z,15.50
2019-04-26T12:58:11.044Z,15.20
2019-04-26T13:03:20.212Z,17.10
2019-04-26T13:08:19.766Z,14.13
2019-04-26T13:11:18.526Z,16.40
2019-04-26T13:13:54.533Z,13.05
2019-04-26T13:16:27.882Z,14.80
2019-04-26T13:18:59.490Z,13.83
2019-04-26T13:21:33.073Z,12.43
2019-04-26T13:24:06.247Z,12.13
2019-04-26T13:26:38.010Z,12.10
2019-04-26T13:29:09.588Z,13.58
2019-04-26T13:31:41.343Z,11.95
2019-04-26T13:34:13.218Z,13.18
2019-04-26T13:36:45.426Z,13.70
2019-04-26T13:39:17.945Z,10.58
2019-04-26T13:42:02.193Z,11.65
2019-04-26T13:44:41.839Z,11.63
2019-04-26T13:47:21.019Z,10.75
2019-04-26T13:49:54.308Z,10.68
2019-04-26T13:54:56.519Z,11.83
2019-04-26T13:57:28.383Z,11.28
2019-04-26T14:00:02.558Z,11.88
2019-04-26T14:02:34.336Z,10.58
2019-04-26T14:05:06.264Z,10.95
2019-04-26T14:07:37.861Z,12.58
2019-04-26T14:10:09.391Z,11.68
2019-04-26T14:12:40.986Z,11.50
2019-04-26T14:15:12.521Z,12.18
2019-04-26T14:17:44.210Z,10.88
2019-04-26T14:20:19.312Z,11.50
2019-04-26T14:23:06.221Z,11.70
2019-04-26T14:25:57.481Z,11.97
2019-04-26T14:28:29.047Z,15.10
2019-04-26T14:31:00.517Z,11.10
2019-04-26T14:33:32.300Z,11.15
2019-04-26T14:36:17.095Z,11.22
2019-04-26T14:38:40.058Z,11.18
2019-04-26T14:41:13.558Z,10.45
2019-04-26T14:46:16.373Z,11.63
2019-04-26T14:49:01.303Z,11.78
2019-04-26T14:51:25.515Z,11.28
2019-04-26T14:53:57.102Z,12.85
2019-04-26T14:56:29.299Z,11.30
2019-04-26T15:01:52.301Z,10.40
2019-04-26T15:04:34.997Z,11.25
2019-04-26T15:07:07.040Z,11.70
2019-04-26T15:09:38.436Z,12.85
2019-04-26T15:12:12.499Z,11.45
2019-04-26T15:17:16.334Z,11.90
2019-04-26T15:22:18.522Z,11.97
2019-04-26T15:24:50.127Z,11.63
2019-04-26T15:27:21.619Z,10.93
2019-04-26T15:29:53.330Z,11.25
2019-04-26T15:32:27.986Z,10.85
2019-04-26T15:34:58.594Z,10.45
2019-04-26T15:37:32.076Z,10.13
2019-04-26T15:40:22.575Z,10.95
2019-04-26T15:43:01.347Z,14.13
2019-04-26T15:45:32.593Z,17.57
2019-04-26T15:48:08.383Z,15.32
2019-04-26T15:50:50.154Z,14.23
2019-04-26T15:53:14.860Z,14.63
2019-04-26T15:55:47.538Z,13.55
2019-04-26T15:58:18.992Z,14.68
2019-04-26T16:00:50.634Z,13.15
2019-04-26T16:03:22.742Z,12.50
2019-04-26T16:08:26.023Z,11.73
2019-04-26T16:10:57.576Z,12.15
2019-04-26T16:13:29.273Z,12.85
2019-04-26T16:16:02.026Z,11.48
2019-04-26T16:18:34.063Z,12.53
2019-04-26T16:21:05.717Z,12.00
2019-04-26T16:23:41.226Z,11.10
2019-04-26T16:28:45.803Z,11.25
2019-04-26T16:31:22.076Z,10.85
2019-04-26T16:33:58.214Z,11.40
2019-04-26T16:36:29.784Z,9.90
2019-04-26T16:39:05.751Z,10.03
2019-04-26T16:41:38.695Z,10.20
2019-04-26T16:44:13.019Z,10.48
2019-04-26T16:49:15.252Z,12.47
2019-04-26T16:51:54.478Z,12.47
2019-04-26T16:54:21.786Z,13.03
2019-04-26T16:59:26.757Z,13.45
2019-04-26T17:02:01.494Z,11.83
2019-04-26T17:04:32.299Z,12.80
2019-04-26T17:07:05.077Z,13.45
2019-04-26T17:09:55.799Z,12.18
2019-04-26T17:12:15.008Z,11.95
2019-04-26T17:14:47.773Z,12.75
2019-04-26T17:17:17.374Z,12.10
2019-04-26T17:19:48.933Z,14.07
2019-04-26T17:22:41.831Z,14.83
2019-04-26T17:25:02.785Z,14.63
2019-04-26T17:30:08.722Z,15.43
2019-04-26T17:32:40.133Z,16.70
2019-04-26T17:35:11.550Z,18.12
2019-04-26T17:37:43.406Z,18.45
2019-04-26T17:40:14.964Z,18.82
2019-04-26T17:42:46.744Z,19.05
2019-04-26T17:45:18.281Z,21.82
2019-04-26T17:47:50.691Z,16.95
2019-04-26T17:50:22.986Z,17.70
2019-04-26T17:52:54.469Z,15.65
2019-04-26T17:55:26.048Z,15.15
2019-04-26T17:58:11.595Z,16.40
2019-04-26T18:00:45.507Z,14.75
2019-04-26T18:03:07.606Z,16.50
2019-04-26T18:08:31.357Z,15.90
2019-04-26T18:10:42.946Z,14.73
2019-04-26T18:13:16.273Z,15.68
2019-04-26T18:15:48.631Z,16.48
2019-04-26T18:18:28.221Z,17.87
2019-04-26T18:21:02.976Z,16.40
2019-04-26T18:23:34.620Z,16.35
2019-04-26T18:26:06.147Z,16.75
2019-04-26T18:28:37.618Z,17.45
2019-04-26T18:31:10.845Z,15.13
2019-04-26T18:33:42.641Z,16.12
2019-04-26T18:36:14.050Z,16.70
2019-04-26T18:38:48.582Z,16.50
2019-04-26T18:41:18.670Z,16.95
2019-04-26T18:43:55.594Z,17.05
2019-04-26T18:46:27.568Z,15.45
2019-04-26T18:48:59.001Z,15.70
2019-04-26T18:51:30.543Z,13.95
2019-04-26T18:54:17.843Z,14.30
2019-04-26T18:56:55.248Z,15.28
2019-04-26T18:59:27.949Z,14.80
2019-04-26T19:01:59.632Z,15.38
2019-04-26T19:04:31.168Z,16.67
2019-04-26T19:07:03.698Z,16.93
2019-04-26T19:09:56.654Z,16.30
2019-04-26T19:12:11.786Z,15.13
2019-04-26T19:14:49.825Z,16.23
2019-04-26T19:17:36.089Z,16.35
2019-04-26T19:20:25.910Z,18.98
2019-04-26T19:23:05.260Z,17.07
2019-04-26T19:25:40.877Z,18.25
2019-04-26T19:28:12.148Z,19.65
2019-04-26T19:30:49.320Z,19.40
2019-04-26T19:33:18.582Z,19.10
2019-04-26T19:35:50.486Z,16.82
2019-04-26T19:38:22.078Z,16.93
2019-04-26T19:40:53.563Z,18.65
2019-04-26T19:43:31.007Z,18.35
2019-04-26T19:46:01.441Z,17.75
2019-04-26T19:48:35.831Z,18.98
2019-04-26T19:51:08.936Z,19.20
2019-04-26T19:53:54.166Z,17.85
2019-04-26T19:56:35.911Z,19.73
2019-04-26T19:59:07.494Z,19.30
2019-04-26T20:01:39.070Z,23.30
2019-04-26T20:04:14.983Z,28.73
2019-04-26T20:06:48.397Z,22.52
2019-04-26T20:09:22.874Z,19.37
2019-04-26T20:11:57.933Z,20.48
2019-04-26T20:14:39.928Z,18.95
2019-04-26T20:17:01.751Z,17.23
2019-04-26T20:19:37.265Z,17.52
2019-04-26T20:22:06.779Z,16.37
2019-04-26T20:24:38.249Z,17.25
2019-04-26T20:27:14.951Z,20.88
2019-04-26T20:29:47.306Z,20.50
2019-04-26T20:32:21.143Z,23.22
2019-04-26T20:34:52.638Z,27.95
2019-04-26T20:37:25.796Z,24.52
2019-04-26T20:40:16.239Z,24.43
2019-04-26T20:42:31.621Z,25.43
2019-04-26T20:45:04.516Z,24.23
2019-04-26T20:47:36.858Z,26.00
2019-04-26T20:50:08.951Z,28.15
2019-04-26T20:52:41.442Z,28.55
2019-04-26T20:55:13.769Z,30.40
2019-04-26T20:57:45.471Z,30.00
2019-04-26T21:00:17.039Z,29.60
2019-04-26T21:02:48.540Z,30.77
2019-04-26T21:05:21.386Z,28.90
2019-04-26T21:07:52.869Z,28.67
2019-04-26T21:10:25.742Z,27.52
2019-04-26T21:12:57.428Z,27.67
2019-04-26T21:15:29.018Z,28.85
2019-04-26T21:18:01.333Z,27.77
2019-04-26T21:20:36.420Z,28.73
2019-04-26T21:23:06.904Z,28.80
2019-04-26T21:25:48.936Z,28.92
2019-04-26T21:28:32.924Z,28.85
2019-04-26T21:31:12.127Z,30.37
2019-04-26T21:34:03.751Z,28.42
2019-04-26T21:36:41.056Z,28.12
2019-04-26T21:39:17.812Z,23.15
2019-04-26T21:41:51.003Z,21.57
2019-04-26T21:44:22.577Z,23.15
2019-04-26T21:46:58.628Z,23.40
2019-04-26T21:49:27.221Z,21.55
2019-04-26T21:51:58.608Z,21.73
2019-04-26T21:54:29.884Z,21.68
2019-04-26T21:57:01.230Z,21.97
2019-04-26T21:59:35.196Z,26.97
2019-04-26T22:02:06.813Z,28.20
2019-04-26T22:04:38.370Z,33.95
2019-04-26T22:07:09.908Z,27.17
2019-04-26T22:09:52.892Z,27.05
2019-04-26T22:12:27.236Z,27.00
2019-04-26T22:15:00.950Z,26.05
2019-04-26T22:17:40.423Z,26.33
2019-04-26T22:20:27.868Z,25.85
2019-04-26T22:23:16.426Z,28.27
2019-04-26T22:25:48.719Z,30.15
2019-04-26T22:28:20.222Z,30.27
2019-04-26T22:30:51.720Z,31.50
2019-04-26T22:33:27.405Z,31.23
2019-04-26T22:35:58.702Z,28.77
2019-04-26T22:38:30.233Z,29.30
2019-04-26T22:41:03.042Z,24.35
2019-04-26T22:46:18.717Z,26.60
2019-04-26T22:48:54.895Z,19.35
2019-04-26T22:51:24.032Z,15.60
2019-04-26T22:53:57.662Z,13.08
2019-04-26T22:56:32.529Z,11.83
2019-04-26T22:59:15.212Z,11.93
2019-04-26T23:01:48.882Z,11.50
2019-04-26T23:04:23.665Z,11.55
2019-04-26T23:06:56.469Z,9.80
2019-04-26T23:09:27.923Z,9.85
2019-04-26T23:12:01.476Z,10.68
2019-04-26T23:17:15.277Z,10.60
2019-04-26T23:19:57.559Z,9.98
2019-04-26T23:22:31.099Z,10.43
2019-04-26T23:25:03.529Z,11.75
2019-04-26T23:27:35.270Z,10.43
2019-04-26T23:30:07.000Z,11.78
2019-04-26T23:32:38.533Z,11.60
2019-04-26T23:35:09.983Z,10.90
2019-04-26T23:37:41.534Z,10.82
2019-04-26T23:40:13.412Z,10.75
2019-04-26T23:42:47.604Z,10.88
2019-04-26T23:45:48.356Z,11.38
2019-04-26T23:48:19.215Z,11.33
2019-04-26T23:50:51.019Z,10.08
2019-04-26T23:53:24.015Z,11.22
2019-04-26T23:55:55.692Z,10.13
2019-04-26T23:58:27.137Z,11.20
